createdAt,value
2023-04-26T00:02:02.522Z,82.99
2023-04-26T00:04:30.358Z,82.58
2023-04-26T00:06:58.120Z,81.91
2023-04-26T00:09:25.475Z,81.83
2023-04-26T00:11:53.011Z,82.23
2023-04-26T00:14:20.282Z,82.17
2023-04-26T00:16:47.653Z,82.66
2023-04-26T00:19:14.910Z,82.69
2023-04-26T00:21:42.271Z,82.54
2023-04-26T00:24:09.902Z,83.17
2023-04-26T00:26:37.358Z,82.75
2023-04-26T00:29:05.562Z,82.96
2023-04-26T00:31:33.420Z,82.96
2023-04-26T00:34:01.175Z,82.90
2023-04-26T00:36:28.362Z,82.90
2023-04-26T00:38:55.905Z,83.04
2023-04-26T00:41:23.197Z,83.11
2023-04-26T00:43:50.770Z,83.66
2023-04-26T00:46:18.126Z,83.62
2023-04-26T00:48:45.484Z,83.58
2023-04-26T00:51:13.778Z,83.98
2023-04-26T00:53:42.104Z,83.61
2023-04-26T00:56:13.129Z,84.15
2023-04-26T00:58:40.515Z,83.95
2023-04-26T01:01:08.325Z,83.96
2023-04-26T01:03:37.829Z,84.17
2023-04-26T01:06:05.352Z,84.43
2023-04-26T01:08:32.641Z,84.34
2023-04-26T01:11:00.167Z,84.62
2023-04-26T01:13:28.182Z,84.65
2023-04-26T01:15:56.732Z,84.91
2023-04-26T01:18:24.465Z,84.85
2023-04-26T01:20:53.517Z,84.90
2023-04-26T01:23:20.812Z,85.14
2023-04-26T01:25:48.627Z,85.24
2023-04-26T01:28:15.995Z,85.79
2023-04-26T01:30:43.858Z,85.88
2023-04-26T01:33:11.792Z,86.15
2023-04-26T01:35:39.121Z,86.01
2023-04-26T01:38:06.506Z,86.44
2023-04-26T01:40:33.751Z,86.24
2023-04-26T01:43:03.677Z,86.17
2023-04-26T01:45:31.539Z,86.09
2023-04-26T01:48:17.132Z,86.02
2023-04-26T01:50:44.582Z,86.04
2023-04-26T01:53:14.019Z,85.50
2023-04-26T01:55:42.103Z,85.49
2023-04-26T01:58:09.979Z,85.96
2023-04-26T02:00:38.133Z,86.12
2023-04-26T02:03:05.680Z,85.96
2023-04-26T02:05:33.061Z,86.16
2023-04-26T02:08:00.371Z,86.04
2023-04-26T02:10:27.727Z,86.33
2023-04-26T02:12:55.021Z,86.37
2023-04-26T02:15:22.408Z,86.29
2023-04-26T02:17:49.995Z,86.14
2023-04-26T02:20:17.322Z,86.17
2023-04-26T02:22:44.545Z,86.24
2023-04-26T02:25:16.129Z,86.09
2023-04-26T02:27:43.323Z,86.05
2023-04-26T02:30:10.971Z,86.32
2023-04-26T02:32:38.346Z,86.18
2023-04-26T02:35:06.231Z,86.40
2023-04-26T02:37:37.669Z,86.22
2023-04-26T02:40:06.308Z,86.58
2023-04-26T02:42:33.532Z,86.85
2023-04-26T02:45:01.038Z,86.98
2023-04-26T02:47:28.403Z,86.46
2023-04-26T02:49:56.393Z,86.48
2023-04-26T02:52:23.720Z,86.57
2023-04-26T02:54:51.410Z,86.49
2023-04-26T02:57:18.708Z,86.80
2023-04-26T02:59:45.970Z,87.23
2023-04-26T03:02:13.408Z,87.30
2023-04-26T03:04:40.788Z,87.15
2023-04-26T03:07:08.004Z,87.23
2023-04-26T03:09:38.520Z,87.26
2023-04-26T03:12:09.500Z,87.15
2023-04-26T03:14:39.005Z,87.26
2023-04-26T03:17:06.610Z,87.09
2023-04-26T03:19:34.636Z,87.01
2023-04-26T03:22:04.221Z,87.02
2023-04-26T03:24:32.082Z,87.04
2023-04-26T03:27:00.368Z,86.78
2023-04-26T03:29:27.702Z,86.61
2023-04-26T03:31:55.009Z,86.84
2023-04-26T03:34:22.401Z,86.53
2023-04-26T03:36:50.035Z,86.50
2023-04-26T03:39:17.282Z,86.59
2023-04-26T03:41:44.624Z,85.58
2023-04-26T03:44:13.404Z,85.81
2023-04-26T03:46:41.023Z,85.81
2023-04-26T03:49:08.381Z,86.04
2023-04-26T03:51:35.732Z,86.18
2023-04-26T03:54:02.974Z,86.56
2023-04-26T03:56:30.234Z,85.60
2023-04-26T03:58:57.465Z,85.50
2023-04-26T04:01:26.673Z,85.87
2023-04-26T04:03:54.659Z,85.17
2023-04-26T04:06:22.317Z,85.47
2023-04-26T04:08:50.787Z,84.77
2023-04-26T04:11:18.269Z,85.11
2023-04-26T04:13:46.569Z,85.25
2023-04-26T04:16:13.943Z,85.24
2023-04-26T04:18:41.623Z,84.85
2023-04-26T04:21:08.989Z,85.52
2023-04-26T04:23:37.075Z,85.38
2023-04-26T04:26:08.380Z,85.15
2023-04-26T04:28:35.745Z,85.10
2023-04-26T04:31:03.235Z,84.52
2023-04-26T04:33:41.250Z,84.92
2023-04-26T04:36:10.601Z,84.03
2023-04-26T04:38:37.868Z,84.22
2023-04-26T04:41:08.859Z,84.79
2023-04-26T04:43:36.768Z,84.35
2023-04-26T04:46:04.146Z,84.63
2023-04-26T04:48:31.473Z,84.63
2023-04-26T04:50:58.850Z,85.00
2023-04-26T04:53:26.590Z,84.58
2023-04-26T04:55:53.909Z,84.92
2023-04-26T04:58:22.850Z,84.62
2023-04-26T05:00:51.860Z,84.72
2023-04-26T05:03:27.181Z,83.54
2023-04-26T05:05:54.623Z,84.10
2023-04-26T05:08:22.284Z,83.76
2023-04-26T05:10:50.056Z,83.03
2023-04-26T05:13:17.486Z,83.15
2023-04-26T05:15:45.032Z,83.36
2023-04-26T05:18:12.608Z,81.77
2023-04-26T05:20:40.236Z,82.24
2023-04-26T05:23:07.609Z,82.06
2023-04-26T05:25:38.046Z,81.91
2023-04-26T05:28:23.076Z,81.10
2023-04-26T05:31:14.581Z,79.82
2023-04-26T05:34:01.279Z,80.50
2023-04-26T05:36:43.229Z,78.99
2023-04-26T05:39:10.976Z,79.41
2023-04-26T05:41:38.765Z,77.21
2023-04-26T05:44:06.040Z,77.68
2023-04-26T05:46:33.416Z,75.40
2023-04-26T05:49:00.705Z,74.58
2023-04-26T05:51:28.643Z,73.48
2023-04-26T05:53:56.147Z,72.22
2023-04-26T05:56:24.813Z,69.69
2023-04-26T05:58:53.213Z,68.45
2023-04-26T06:01:20.865Z,69.51
2023-04-26T06:03:48.462Z,67.22
2023-04-26T06:06:20.463Z,66.51
2023-04-26T06:08:49.099Z,66.46
2023-04-26T06:11:16.372Z,66.36
2023-04-26T06:13:43.938Z,64.91
2023-04-26T06:16:11.749Z,65.81
2023-04-26T06:18:38.950Z,65.53
2023-04-26T06:21:07.347Z,66.00
2023-04-26T06:23:34.531Z,65.78
2023-04-26T06:26:01.855Z,65.77
2023-04-26T06:28:29.818Z,66.69
2023-04-26T06:30:57.417Z,67.47
2023-04-26T06:33:25.779Z,66.51
2023-04-26T06:35:53.072Z,66.19
2023-04-26T06:38:20.500Z,67.00
2023-04-26T06:40:49.317Z,68.46
2023-04-26T06:43:17.479Z,67.02
2023-04-26T06:46:13.990Z,65.38
2023-04-26T06:48:41.439Z,65.11
2023-04-26T06:51:09.208Z,63.69
2023-04-26T06:53:37.257Z,62.12
2023-04-26T06:56:04.648Z,62.46
2023-04-26T06:58:32.078Z,60.94
2023-04-26T07:00:59.623Z,60.25
2023-04-26T07:03:27.349Z,60.56
2023-04-26T07:05:56.778Z,59.24
2023-04-26T07:08:24.130Z,58.43
2023-04-26T07:10:52.173Z,59.37
2023-04-26T07:13:19.473Z,60.63
2023-04-26T07:15:46.793Z,61.63
2023-04-26T07:18:14.444Z,62.02
2023-04-26T07:20:41.775Z,60.27
2023-04-26T07:23:09.024Z,57.80
2023-04-26T07:25:36.346Z,57.51
2023-04-26T07:28:03.700Z,55.93
2023-04-26T07:30:32.898Z,55.66
2023-04-26T07:33:01.169Z,53.73
2023-04-26T07:35:28.429Z,49.88
2023-04-26T07:37:55.764Z,50.20
2023-04-26T07:40:26.688Z,47.13
2023-04-26T07:42:54.031Z,41.81
2023-04-26T07:45:21.788Z,40.02
2023-04-26T07:47:49.172Z,40.24
2023-04-26T07:50:16.568Z,40.32
2023-04-26T07:52:43.939Z,40.70
2023-04-26T07:55:11.664Z,42.03
2023-04-26T07:57:39.040Z,42.26
2023-04-26T08:00:10.749Z,42.46
2023-04-26T08:02:45.047Z,41.40
2023-04-26T08:05:14.283Z,42.80
2023-04-26T08:07:42.574Z,44.23
2023-04-26T08:10:10.789Z,46.26
2023-04-26T08:12:39.224Z,46.61
2023-04-26T08:15:06.984Z,45.33
2023-04-26T08:17:35.349Z,44.96
2023-04-26T08:20:02.698Z,45.02
2023-04-26T08:22:30.056Z,43.32
2023-04-26T08:24:57.478Z,41.69
2023-04-26T08:27:24.734Z,41.62
2023-04-26T08:29:52.018Z,38.54
2023-04-26T08:32:19.340Z,32.21
2023-04-26T08:34:46.978Z,30.82
2023-04-26T08:37:14.297Z,27.93
2023-04-26T08:39:42.037Z,27.75
2023-04-26T08:42:17.036Z,26.32
2023-04-26T08:44:46.063Z,26.07
2023-04-26T08:47:16.322Z,25.82
2023-04-26T08:49:45.873Z,26.84
2023-04-26T08:52:15.497Z,28.63
2023-04-26T08:54:43.308Z,29.22
2023-04-26T08:57:10.844Z,31.92
2023-04-26T08:59:39.503Z,30.69
2023-04-26T09:02:07.870Z,30.24
2023-04-26T09:04:35.582Z,30.98
2023-04-26T09:07:07.729Z,30.98
2023-04-26T09:09:39.323Z,32.54
2023-04-26T09:12:06.761Z,32.56
2023-04-26T09:14:34.123Z,32.37
2023-04-26T09:17:01.683Z,33.31
2023-04-26T09:19:40.580Z,33.88
2023-04-26T09:22:09.235Z,35.11
2023-04-26T09:24:52.645Z,36.19
2023-04-26T09:27:20.432Z,36.78
2023-04-26T09:30:09.684Z,36.22
2023-04-26T09:32:47.026Z,32.79
2023-04-26T09:35:30.891Z,30.99
2023-04-26T09:38:11.809Z,31.02
2023-04-26T09:40:42.594Z,31.38
2023-04-26T09:43:18.500Z,31.52
2023-04-26T09:45:56.470Z,29.61
2023-04-26T09:48:32.525Z,28.05
2023-04-26T09:51:11.808Z,26.66
2023-04-26T09:53:48.648Z,23.64
2023-04-26T09:56:19.203Z,22.04
2023-04-26T09:58:58.489Z,23.78
2023-04-26T10:01:28.807Z,26.75
2023-04-26T10:03:58.155Z,28.14
2023-04-26T10:06:26.045Z,26.83
2023-04-26T10:08:53.485Z,26.65
2023-04-26T10:11:22.255Z,27.59
2023-04-26T10:13:52.045Z,29.00
2023-04-26T10:16:21.295Z,27.81
2023-04-26T10:18:50.020Z,27.94
2023-04-26T10:21:26.220Z,30.13
2023-04-26T10:23:54.055Z,28.66
2023-04-26T10:26:50.350Z,30.17
2023-04-26T10:29:18.141Z,29.81
2023-04-26T10:32:04.976Z,30.75
2023-04-26T10:34:35.084Z,30.96
2023-04-26T10:37:18.623Z,30.55
2023-04-26T10:39:47.579Z,31.15
2023-04-26T10:42:25.853Z,32.80
2023-04-26T10:44:55.705Z,34.67
2023-04-26T10:47:27.145Z,35.59
2023-04-26T10:50:11.637Z,36.26
2023-04-26T10:53:04.641Z,36.95
2023-04-26T10:55:42.966Z,37.52
2023-04-26T10:58:33.839Z,40.17
2023-04-26T11:01:21.496Z,39.56
2023-04-26T11:03:58.393Z,39.53
2023-04-26T11:06:27.201Z,39.02
2023-04-26T11:08:55.197Z,40.02
2023-04-26T11:11:27.338Z,40.44
2023-04-26T11:13:54.632Z,40.44
2023-04-26T11:16:21.950Z,38.88
2023-04-26T11:18:49.316Z,38.33
2023-04-26T11:21:19.247Z,39.81
2023-04-26T11:23:56.395Z,39.46
2023-04-26T11:26:25.106Z,40.76
2023-04-26T11:28:52.757Z,40.98
2023-04-26T11:31:20.209Z,42.43
2023-04-26T11:33:49.897Z,41.95
2023-04-26T11:36:19.950Z,40.77
2023-04-26T11:38:47.546Z,40.87
2023-04-26T11:41:14.872Z,40.69
2023-04-26T11:43:42.367Z,40.74
2023-04-26T11:46:10.516Z,39.94
2023-04-26T11:48:39.255Z,40.03
2023-04-26T11:51:08.686Z,39.01
2023-04-26T11:53:43.448Z,39.95
2023-04-26T11:56:18.100Z,40.65
2023-04-26T11:58:50.421Z,40.06
2023-04-26T12:01:28.055Z,41.26
2023-04-26T12:03:58.566Z,40.81
2023-04-26T12:06:42.006Z,41.47
2023-04-26T12:09:09.720Z,41.26
2023-04-26T12:11:37.109Z,42.96
2023-04-26T12:14:04.475Z,41.62
2023-04-26T12:16:32.146Z,39.34
2023-04-26T12:18:59.487Z,39.57
2023-04-26T12:21:30.709Z,39.04
2023-04-26T12:23:58.501Z,37.23
2023-04-26T12:26:43.321Z,37.58
2023-04-26T12:29:10.807Z,35.96
2023-04-26T12:31:38.142Z,35.76
2023-04-26T12:34:05.391Z,37.11
2023-04-26T12:36:32.960Z,38.17
2023-04-26T12:39:01.324Z,37.94
2023-04-26T12:41:28.473Z,37.55
2023-04-26T12:43:55.742Z,38.99
2023-04-26T12:46:22.954Z,38.89
2023-04-26T12:48:50.251Z,39.54
2023-04-26T12:51:17.506Z,37.59
2023-04-26T12:53:44.815Z,37.13
2023-04-26T12:56:12.092Z,39.55
2023-04-26T12:58:39.440Z,39.84
2023-04-26T13:01:06.681Z,38.51
2023-04-26T13:03:34.087Z,38.97
2023-04-26T13:06:02.010Z,37.59
2023-04-26T13:08:29.362Z,37.73
2023-04-26T13:10:57.102Z,38.28
2023-04-26T13:13:32.427Z,37.42
2023-04-26T13:16:07.884Z,37.85
2023-04-26T13:18:35.179Z,37.83
2023-04-26T13:21:02.554Z,37.54
2023-04-26T13:23:29.717Z,37.24
2023-04-26T13:25:57.022Z,39.75
2023-04-26T13:28:24.197Z,38.06
2023-04-26T13:30:53.106Z,38.92
2023-04-26T13:33:21.712Z,39.50
2023-04-26T13:35:49.173Z,38.80
2023-04-26T13:38:17.184Z,39.56
2023-04-26T13:40:45.358Z,39.16
2023-04-26T13:43:12.691Z,38.88
2023-04-26T13:45:40.038Z,38.26
2023-04-26T13:48:07.589Z,37.95
2023-04-26T13:50:37.035Z,37.21
2023-04-26T13:53:04.870Z,37.33
2023-04-26T13:55:32.361Z,38.83
2023-04-26T13:57:59.637Z,37.92
2023-04-26T14:00:27.558Z,38.10
2023-04-26T14:02:55.039Z,38.41
2023-04-26T14:05:24.014Z,38.52
2023-04-26T14:07:53.549Z,38.08
2023-04-26T14:10:22.373Z,38.56
2023-04-26T14:12:49.781Z,37.53
2023-04-26T14:15:17.128Z,38.91
2023-04-26T14:17:47.226Z,38.93
2023-04-26T14:20:14.838Z,38.53
2023-04-26T14:22:42.135Z,38.61
2023-04-26T14:25:10.043Z,39.91
2023-04-26T14:27:39.756Z,40.04
2023-04-26T14:30:07.989Z,39.96
2023-04-26T14:32:35.343Z,39.69
2023-04-26T14:35:02.780Z,39.21
2023-04-26T14:37:30.070Z,39.11
2023-04-26T14:39:57.367Z,38.89
2023-04-26T14:42:24.580Z,38.99
2023-04-26T14:44:52.037Z,40.52
2023-04-26T14:47:19.398Z,39.50
2023-04-26T14:49:46.711Z,39.97
2023-04-26T14:52:14.008Z,41.67
2023-04-26T14:54:41.969Z,40.66
2023-04-26T14:57:10.616Z,41.37
2023-04-26T14:59:38.031Z,42.35
2023-04-26T15:02:05.891Z,40.89
2023-04-26T15:04:33.354Z,41.01
2023-04-26T15:07:00.985Z,42.15
2023-04-26T15:09:30.406Z,41.45
2023-04-26T15:11:58.108Z,42.90
2023-04-26T15:14:25.310Z,44.04
2023-04-26T15:16:52.761Z,42.64
2023-04-26T15:19:20.120Z,42.99
2023-04-26T15:21:47.485Z,43.13
2023-04-26T15:24:14.658Z,42.84
2023-04-26T15:26:42.431Z,42.44
2023-04-26T15:29:09.598Z,43.09
2023-04-26T15:31:37.342Z,43.90
2023-04-26T15:34:05.027Z,42.02
2023-04-26T15:36:32.466Z,42.34
2023-04-26T15:38:59.753Z,43.33
2023-04-26T15:41:27.189Z,43.29
2023-04-26T15:43:57.877Z,44.49
2023-04-26T15:46:25.206Z,44.56
2023-04-26T15:48:52.650Z,44.64
2023-04-26T15:51:19.936Z,44.96
2023-04-26T15:53:47.168Z,45.25
2023-04-26T15:56:18.620Z,44.34
2023-04-26T15:58:47.362Z,45.04
2023-04-26T16:01:15.306Z,45.46
2023-04-26T16:03:46.545Z,46.47
2023-04-26T16:06:15.148Z,47.21
2023-04-26T16:08:42.638Z,47.42
2023-04-26T16:11:10.030Z,47.68
2023-04-26T16:13:37.591Z,48.32
2023-04-26T16:16:11.978Z,47.47
2023-04-26T16:18:44.152Z,48.05
2023-04-26T16:21:13.482Z,48.41
2023-04-26T16:23:42.179Z,48.59
2023-04-26T16:26:09.863Z,48.23
2023-04-26T16:28:37.361Z,48.62
2023-04-26T16:31:04.863Z,49.33
2023-04-26T16:33:32.117Z,48.83
2023-04-26T16:35:59.575Z,48.20
2023-04-26T16:38:27.152Z,48.14
2023-04-26T16:40:59.248Z,50.02
2023-04-26T16:43:27.563Z,49.15
2023-04-26T16:46:08.317Z,49.57
2023-04-26T16:48:37.428Z,49.62
2023-04-26T16:51:07.598Z,50.38
2023-04-26T16:53:36.144Z,50.63
2023-04-26T16:56:04.263Z,50.86
2023-04-26T16:58:31.838Z,52.15
2023-04-26T17:00:59.171Z,51.57
2023-04-26T17:03:27.123Z,51.98
2023-04-26T17:05:54.708Z,51.54
2023-04-26T17:08:22.332Z,51.81
2023-04-26T17:10:49.866Z,52.79
2023-04-26T17:13:17.188Z,52.68
2023-04-26T17:15:44.599Z,53.72
2023-04-26T17:18:12.020Z,53.14
2023-04-26T17:20:39.361Z,53.47
2023-04-26T17:23:08.209Z,53.73
2023-04-26T17:25:35.557Z,54.53
2023-04-26T17:28:03.256Z,54.90
2023-04-26T17:30:30.872Z,54.33
2023-04-26T17:32:58.214Z,54.40
2023-04-26T17:35:25.678Z,54.81
2023-04-26T17:37:52.993Z,54.75
2023-04-26T17:40:20.471Z,55.12
2023-04-26T17:42:47.952Z,54.58
2023-04-26T17:45:15.448Z,55.68
2023-04-26T17:47:43.472Z,55.64
2023-04-26T17:50:11.169Z,56.02
2023-04-26T17:52:38.817Z,58.25
2023-04-26T17:55:08.791Z,57.75
2023-04-26T17:57:39.380Z,58.54
2023-04-26T18:00:07.147Z,58.59
2023-04-26T18:02:35.698Z,59.01
2023-04-26T18:05:04.254Z,58.96
2023-04-26T18:07:31.745Z,60.39
2023-04-26T18:09:58.947Z,59.66
2023-04-26T18:12:26.467Z,60.02
2023-04-26T18:14:53.707Z,59.06
2023-04-26T18:17:21.200Z,59.47
2023-04-26T18:19:48.445Z,59.73
2023-04-26T18:22:15.859Z,59.33
2023-04-26T18:24:43.063Z,59.89
2023-04-26T18:27:13.482Z,60.25
2023-04-26T18:29:41.101Z,61.24
2023-04-26T18:32:08.532Z,60.29
2023-04-26T18:34:35.870Z,61.79
2023-04-26T18:37:03.217Z,61.39
2023-04-26T18:39:30.862Z,61.37
2023-04-26T18:42:02.436Z,61.92
2023-04-26T18:44:29.619Z,61.99
2023-04-26T18:46:57.280Z,61.74
2023-04-26T18:49:25.792Z,62.35
2023-04-26T18:51:53.232Z,62.05
2023-04-26T18:54:20.567Z,62.43
2023-04-26T18:56:47.858Z,62.51
2023-04-26T18:59:15.159Z,62.83
2023-04-26T19:01:42.528Z,63.10
2023-04-26T19:04:10.110Z,63.54
2023-04-26T19:06:37.634Z,63.49
2023-04-26T19:09:06.871Z,63.23
2023-04-26T19:11:34.239Z,62.30
2023-04-26T19:14:01.632Z,62.72
2023-04-26T19:16:29.042Z,62.47
2023-04-26T19:18:56.235Z,62.23
2023-04-26T19:21:23.523Z,61.23
2023-04-26T19:23:50.956Z,62.38
2023-04-26T19:26:18.440Z,62.59
2023-04-26T19:28:45.885Z,62.43
2023-04-26T19:31:13.372Z,63.09
2023-04-26T19:33:40.843Z,63.53
2023-04-26T19:36:10.357Z,63.74
2023-04-26T19:38:37.601Z,64.16
2023-04-26T19:41:04.885Z,63.29
2023-04-26T19:43:32.219Z,63.41
2023-04-26T19:45:59.801Z,62.92
2023-04-26T19:48:28.373Z,63.35
2023-04-26T19:50:55.705Z,63.50
2023-04-26T19:53:23.043Z,63.06
2023-04-26T19:55:50.366Z,64.36
2023-04-26T19:58:17.645Z,62.86
2023-04-26T20:00:44.919Z,62.12
2023-04-26T20:03:12.487Z,63.88
2023-04-26T20:05:39.834Z,64.60
2023-04-26T20:08:07.170Z,64.69
2023-04-26T20:10:34.673Z,64.27
2023-04-26T20:13:03.122Z,63.83
2023-04-26T20:15:32.269Z,64.27
2023-04-26T20:18:02.650Z,64.01
2023-04-26T20:20:30.011Z,63.84
2023-04-26T20:22:57.360Z,64.33
2023-04-26T20:25:24.692Z,64.19
2023-04-26T20:27:52.008Z,63.93
2023-04-26T20:30:19.405Z,65.06
2023-04-26T20:32:47.423Z,64.46
2023-04-26T20:35:14.704Z,63.96
2023-04-26T20:37:42.014Z,64.28
2023-04-26T20:40:09.896Z,67.92
2023-04-26T20:42:37.181Z,71.04
2023-04-26T20:45:04.761Z,75.29
2023-04-26T20:47:32.783Z,75.40
2023-04-26T20:50:00.172Z,74.92
2023-04-26T20:52:27.539Z,71.66
2023-04-26T20:54:56.850Z,69.10
2023-04-26T20:57:24.984Z,70.24
2023-04-26T20:59:52.224Z,72.39
2023-04-26T21:02:19.749Z,73.97
2023-04-26T21:04:47.390Z,74.30
2023-04-26T21:07:14.909Z,73.79
2023-04-26T21:09:43.208Z,72.03
2023-04-26T21:12:10.504Z,69.49
2023-04-26T21:14:37.784Z,71.29
2023-04-26T21:17:06.305Z,71.91
2023-04-26T21:19:33.689Z,71.34
2023-04-26T21:22:00.904Z,72.20
2023-04-26T21:24:28.426Z,72.50
2023-04-26T21:26:55.778Z,70.43
2023-04-26T21:29:23.042Z,69.56
2023-04-26T21:31:50.392Z,67.83
2023-04-26T21:34:17.777Z,68.19
2023-04-26T21:36:45.198Z,67.82
2023-04-26T21:39:12.687Z,67.58
2023-04-26T21:41:40.110Z,67.19
2023-04-26T21:44:07.651Z,67.88
2023-04-26T21:46:34.974Z,67.76
2023-04-26T21:49:02.223Z,68.41
2023-04-26T21:51:29.473Z,68.67
2023-04-26T21:53:56.803Z,68.36
2023-04-26T21:56:24.541Z,68.47
2023-04-26T21:58:51.763Z,69.59
2023-04-26T22:01:19.043Z,73.84
2023-04-26T22:03:46.583Z,74.90
2023-04-26T22:06:14.104Z,74.50
2023-04-26T22:08:41.634Z,72.72
2023-04-26T22:11:08.924Z,75.14
2023-04-26T22:13:36.197Z,75.48
2023-04-26T22:16:03.865Z,76.20
2023-04-26T22:18:31.181Z,75.96
2023-04-26T22:20:58.531Z,75.35
2023-04-26T22:23:26.142Z,75.51
2023-04-26T22:25:53.391Z,75.13
2023-04-26T22:28:20.831Z,73.52
2023-04-26T22:30:48.092Z,73.73
2023-04-26T22:33:15.400Z,73.81
2023-04-26T22:35:42.824Z,74.08
2023-04-26T22:38:10.150Z,74.56
2023-04-26T22:40:37.554Z,74.30
2023-04-26T22:43:04.802Z,75.18
2023-04-26T22:45:32.016Z,73.76
2023-04-26T22:47:59.403Z,72.81
2023-04-26T22:50:26.678Z,71.76
2023-04-26T22:52:54.130Z,71.71
2023-04-26T22:55:21.356Z,71.59
2023-04-26T22:57:48.752Z,72.53
2023-04-26T23:00:16.350Z,72.01
2023-04-26T23:02:43.905Z,71.19
2023-04-26T23:05:11.740Z,72.34
2023-04-26T23:07:40.049Z,73.56
2023-04-26T23:10:07.957Z,73.62
2023-04-26T23:12:36.473Z,72.94
2023-04-26T23:15:05.873Z,74.10
2023-04-26T23:17:34.551Z,74.71
2023-04-26T23:20:02.114Z,74.85
2023-04-26T23:22:29.536Z,75.21
2023-04-26T23:24:56.831Z,75.50
2023-04-26T23:27:25.443Z,75.86
2023-04-26T23:29:52.663Z,75.79
2023-04-26T23:32:19.892Z,76.05
2023-04-26T23:34:47.270Z,76.49
2023-04-26T23:37:14.521Z,77.02
2023-04-26T23:39:41.754Z,75.22
2023-04-26T23:42:09.075Z,75.11
2023-04-26T23:44:36.379Z,75.14
2023-04-26T23:47:03.727Z,75.72
2023-04-26T23:49:31.142Z,75.50
2023-04-26T23:51:58.430Z,76.08
2023-04-26T23:54:25.814Z,76.58
2023-04-26T23:56:53.074Z,77.15
2023-04-26T23:59:20.272Z,76.78
